Time;durP1;ratioP1;P1;durP2;ratioP2;P2;SDS_P1;SDS_P2;PMS_P1;PMS_P2;Temp;Humidity;BMP_temperature;BMP_pressure;BME280_temperature;BME280_humidity;BME280_pressure;Samples;Min_cycle;Max_cycle;Signal;HPM_P1;HPM_P2
2022/10/01 00:02:04;;;;;;;23.77;15.85;;;8.00;99.90;;;;;;5051572;28;20068;-80
2022/10/01 00:04:30;;;;;;;22.73;16.13;;;8.00;99.90;;;;;;5050448;28;20029;-77
2022/10/01 00:06:58;;;;;;;23.52;15.75;;;7.90;99.90;;;;;;5050978;28;20049;-77
2022/10/01 00:09:25;;;;;;;24.08;16.25;;;8.00;99.90;;;;;;5051710;28;20021;-77
2022/10/01 00:11:52;;;;;;;23.30;16.50;;;8.00;99.90;;;;;;5051007;28;20044;-79
2022/10/01 00:14:18;;;;;;;25.25;16.70;;;8.00;99.90;;;;;;5049843;28;20025;-77
2022/10/01 00:16:44;;;;;;;27.42;15.93;;;8.10;99.90;;;;;;5046264;28;20032;-78
2022/10/01 00:19:13;;;;;;;25.35;16.98;;;8.20;99.90;;;;;;5032600;28;20036;-77
2022/10/01 00:21:40;;;;;;;24.85;16.13;;;8.20;99.90;;;;;;5040117;28;20037;-77
2022/10/01 00:24:06;;;;;;;31.65;17.60;;;8.10;99.90;;;;;;5040395;28;20041;-80
2022/10/01 00:26:37;;;;;;;27.35;17.65;;;8.10;99.90;;;;;;5054192;28;20485;-78
2022/10/01 00:29:05;;;;;;;;;;;8.20;99.90;;;;;;5058110;28;20037;-78
2022/10/01 00:31:31;;;;;;;25.67;15.07;;;8.20;99.90;;;;;;5058538;28;19905;-78
2022/10/01 00:33:59;;;;;;;25.85;16.75;;;8.30;99.90;;;;;;5054078;28;20501;-77
2022/10/01 00:36:26;;;;;;;29.80;17.48;;;8.30;99.90;;;;;;5066648;28;20036;-78
2022/10/01 00:38:57;;;;;;;28.17;17.38;;;8.30;99.90;;;;;;5051550;28;20029;-78
2022/10/01 00:41:24;;;;;;;;;;;8.30;99.90;;;;;;5050843;28;20037;-78
2022/10/01 00:43:56;;;;;;;27.02;15.70;;;8.30;99.90;;;;;;5049438;28;19911;-78
2022/10/01 00:46:37;;;;;;;24.88;16.92;;;8.40;99.90;;;;;;5050653;28;20044;-78
2022/10/01 00:49:19;;;;;;;25.08;18.40;;;8.40;99.90;;;;;;5051700;28;20040;-77
2022/10/01 00:51:52;;;;;;;;;;;8.50;99.90;;;;;;5051819;28;20025;-79
2022/10/01 00:54:23;;;;;;;24.23;17.05;;;8.50;99.90;;;;;;5049831;28;19916;-77
2022/10/01 00:56:54;;;;;;;23.55;15.70;;;8.50;99.90;;;;;;5051531;28;20033;-77
2022/10/01 00:59:21;;;;;;;;;;;8.50;99.90;;;;;;5033430;28;20513;-76
2022/10/01 01:01:47;;;;;;;28.63;16.90;;;8.60;99.90;;;;;;5031356;28;19924;-78
2022/10/01 01:04:16;;;;;;;26.70;16.75;;;8.60;99.90;;;;;;5030599;28;20041;-76
2022/10/01 01:06:54;;;;;;;27.08;17.05;;;8.60;99.90;;;;;;5031923;28;20048;-76
2022/10/01 01:09:30;;;;;;;29.20;16.52;;;8.60;99.90;;;;;;5031544;28;20462;-76
2022/10/01 01:12:03;;;;;;;25.70;15.98;;;8.60;99.90;;;;;;5050552;28;20029;-77
2022/10/01 01:14:46;;;;;;;22.15;14.85;;;8.70;99.90;;;;;;5048829;28;20045;-77
2022/10/01 01:17:24;;;;;;;27.33;14.38;;;8.70;99.90;;;;;;5050126;28;20036;-76
2022/10/01 01:20:04;;;;;;;28.42;16.02;;;8.70;99.90;;;;;;5051026;28;20029;-76
2022/10/01 01:22:35;;;;;;;20.38;13.15;;;8.70;99.90;;;;;;5047899;28;20041;-77
2022/10/01 01:25:11;;;;;;;19.92;12.98;;;8.80;99.90;;;;;;5050926;28;20056;-77
2022/10/01 01:27:44;;;;;;;19.17;12.23;;;8.80;99.90;;;;;;5050952;28;20054;-77
2022/10/01 01:30:14;;;;;;;15.80;10.90;;;8.80;99.90;;;;;;5050505;28;20025;-77
2022/10/01 01:33:02;;;;;;;16.70;11.18;;;8.80;99.90;;;;;;5036162;28;20045;-77
2022/10/01 01:35:36;;;;;;;16.23;11.00;;;8.80;99.90;;;;;;5031050;28;20036;-77
2022/10/01 01:38:16;;;;;;;13.93;10.45;;;8.80;99.90;;;;;;5014169;28;20486;-77
2022/10/01 01:40:45;;;;;;;14.82;9.52;;;8.90;99.90;;;;;;5031757;28;20493;-77
2022/10/01 01:43:17;;;;;;;14.95;10.50;;;8.90;99.90;;;;;;5029501;28;20387;-77
2022/10/01 01:45:44;;;;;;;13.73;9.55;;;8.90;99.90;;;;;;5030635;28;20041;-76
2022/10/01 01:48:12;;;;;;;14.20;10.05;;;8.90;99.90;;;;;;5030998;28;20037;-77
2022/10/01 01:51:18;;;;;;;14.95;10.02;;;8.90;99.90;;;;;;5031776;28;20041;-76
2022/10/01 01:53:44;;;;;;;15.25;10.25;;;9.10;99.90;;;;;;5055634;28;20096;-76
2022/10/01 01:56:11;;;;;;;11.65;8.65;;;9.10;99.90;;;;;;5035417;28;20505;-79
2022/10/01 01:58:38;;;;;;;13.35;9.13;;;9.20;99.90;;;;;;5035415;28;20036;-76
2022/10/01 02:01:04;;;;;;;10.18;7.20;;;9.30;99.90;;;;;;5035479;28;20053;-76
2022/10/01 02:03:32;;;;;;;12.55;8.32;;;9.40;99.90;;;;;;5047905;28;20045;-77
2022/10/01 02:06:12;;;;;;;11.55;7.63;;;9.40;99.90;;;;;;5035207;28;20466;-76
2022/10/01 02:09:02;;;;;;;10.48;7.43;;;9.50;99.90;;;;;;5049867;28;20029;-77
2022/10/01 02:11:36;;;;;;;15.63;7.40;;;9.50;99.90;;;;;;5034466;28;20116;-77
2022/10/01 02:14:20;;;;;;;10.88;6.13;;;9.60;99.90;;;;;;5034112;28;20386;-76
2022/10/01 02:17:24;;;;;;;7.55;5.60;;;9.60;99.90;;;;;;5053040;28;20052;-76
2022/10/01 02:19:59;;;;;;;8.25;6.07;;;9.60;99.90;;;;;;5031536;28;20040;-77
2022/10/01 02:22:39;;;;;;;8.48;5.47;;;9.70;99.90;;;;;;5029129;28;20132;-76
2022/10/01 02:25:08;;;;;;;11.75;6.50;;;9.70;99.90;;;;;;5036911;28;20041;-75
2022/10/01 02:27:49;;;;;;;7.38;5.82;;;9.70;99.90;;;;;;5053608;28;20036;-75
2022/10/01 02:30:17;;;;;;;10.75;6.18;;;9.70;99.90;;;;;;5053126;28;20477;-76
2022/10/01 02:32:45;;;;;;;7.93;5.10;;;9.70;99.90;;;;;;5052466;28;20051;-75
2022/10/01 02:35:15;;;;;;;7.28;4.90;;;9.70;99.90;;;;;;5053130;28;20044;-78
2022/10/01 02:37:44;;;;;;;7.13;5.33;;;9.70;99.90;;;;;;5053865;28;20367;-75
2022/10/01 02:40:15;;;;;;;6.20;4.78;;;9.80;99.90;;;;;;5053320;28;20259;-78
2022/10/01 02:42:42;;;;;;;;;;;9.80;99.90;;;;;;5052345;28;20048;-75
2022/10/01 02:45:10;;;;;;;6.68;4.32;;;9.80;99.90;;;;;;5053644;28;19908;-75
2022/10/01 02:47:42;;;;;;;9.25;4.70;;;9.80;99.90;;;;;;5053005;28;20037;-75
2022/10/01 02:50:08;;;;;;;7.00;4.82;;;9.80;99.90;;;;;;5053860;28;20044;-75
2022/10/01 02:52:46;;;;;;;7.97;5.22;;;9.70;99.90;;;;;;5033145;28;20027;-75
2022/10/01 02:55:17;;;;;;;5.75;4.43;;;9.80;99.90;;;;;;5049451;28;20386;-79
2022/10/01 02:57:44;;;;;;;;;;;9.70;99.90;;;;;;5055772;28;20385;-74
2022/10/01 03:00:17;;;;;;;6.00;4.32;;;9.70;99.90;;;;;;5028873;28;19936;-77
2022/10/01 03:02:43;;;;;;;6.50;4.55;;;9.80;99.90;;;;;;5040327;28;20428;-76
2022/10/01 03:05:09;;;;;;;11.10;4.15;;;9.70;99.90;;;;;;5055914;28;20052;-76
2022/10/01 03:07:36;;;;;;;8.45;4.70;;;9.70;99.90;;;;;;5053484;28;20040;-75
2022/10/01 03:10:04;;;;;;;5.88;4.18;;;9.80;99.90;;;;;;5035061;28;20025;-75
2022/10/01 03:12:31;;;;;;;6.93;4.00;;;9.70;99.90;;;;;;5032890;28;20033;-74
2022/10/01 03:14:58;;;;;;;6.20;3.85;;;9.80;99.90;;;;;;5034448;28;20029;-75
2022/10/01 03:17:24;;;;;;;6.90;4.35;;;9.80;99.90;;;;;;5052832;28;20370;-76
2022/10/01 03:19:50;;;;;;;8.45;4.28;;;9.80;99.90;;;;;;5053766;28;20029;-76
2022/10/01 03:22:21;;;;;;;6.03;4.30;;;9.80;99.90;;;;;;5051812;28;20033;-76
2022/10/01 03:24:51;;;;;;;5.28;3.88;;;9.80;99.90;;;;;;5042449;28;20041;-75
2022/10/01 03:27:19;;;;;;;8.07;4.05;;;9.80;99.90;;;;;;5033116;28;20034;-75
2022/10/01 03:29:45;;;;;;;4.35;3.13;;;9.80;99.90;;;;;;5052643;28;20024;-75
2022/10/01 03:32:12;;;;;;;6.10;3.75;;;9.90;99.90;;;;;;5035120;28;20045;-78
2022/10/01 03:34:39;;;;;;;5.22;3.40;;;9.90;99.90;;;;;;5034312;28;20390;-75
2022/10/01 03:37:05;;;;;;;4.82;3.67;;;9.90;99.90;;;;;;5033702;28;20026;-74
2022/10/01 03:39:31;;;;;;;8.85;3.53;;;9.90;99.90;;;;;;5033768;28;20049;-75
2022/10/01 03:41:58;;;;;;;5.32;3.95;;;9.90;99.90;;;;;;5047452;28;20482;-76
2022/10/01 03:44:24;;;;;;;7.20;3.88;;;9.90;99.90;;;;;;5033227;28;20037;-75
2022/10/01 03:46:50;;;;;;;5.75;3.90;;;9.90;99.90;;;;;;5034009;28;20051;-75
2022/10/01 03:49:16;;;;;;;4.35;3.22;;;9.90;99.90;;;;;;5033543;28;20040;-79
2022/10/01 03:51:44;;;;;;;4.90;3.05;;;10.00;99.90;;;;;;5032931;28;20038;-76
2022/10/01 03:54:10;;;;;;;5.00;3.45;;;10.00;99.90;;;;;;5033358;28;20045;-75
2022/10/01 03:56:39;;;;;;;4.40;3.08;;;10.00;99.90;;;;;;5033264;28;20036;-75
2022/10/01 03:59:06;;;;;;;3.90;3.03;;;10.00;99.90;;;;;;5033713;28;20038;-75
2022/10/01 04:01:32;;;;;;;5.45;3.05;;;10.00;99.90;;;;;;5031893;28;20057;-75
2022/10/01 04:03:58;;;;;;;4.35;3.20;;;10.10;99.90;;;;;;5033079;28;20037;-76
2022/10/01 04:06:24;;;;;;;4.03;2.90;;;10.10;99.90;;;;;;5039443;28;20391;-76
2022/10/01 04:08:51;;;;;;;4.55;3.03;;;10.10;99.90;;;;;;5039567;28;20032;-76
2022/10/01 04:11:17;;;;;;;4.10;2.97;;;10.10;99.90;;;;;;5032100;28;20045;-78
2022/10/01 04:13:43;;;;;;;4.93;3.17;;;10.10;99.90;;;;;;5031688;28;20049;-75
2022/10/01 04:16:09;;;;;;;3.50;2.78;;;10.10;99.90;;;;;;5033383;28;20029;-75
2022/10/01 04:18:35;;;;;;;4.38;2.92;;;10.10;99.90;;;;;;5031702;28;20525;-75
2022/10/01 04:21:02;;;;;;;5.28;3.38;;;10.10;99.90;;;;;;5039980;28;20033;-75
2022/10/01 04:23:28;;;;;;;4.60;2.88;;;10.10;99.90;;;;;;5041952;28;20033;-75
2022/10/01 04:25:59;;;;;;;5.05;3.22;;;10.00;99.90;;;;;;5045054;28;20046;-75
2022/10/01 04:28:25;;;;;;;5.82;3.08;;;10.00;99.90;;;;;;5043821;28;20034;-77
2022/10/01 04:31:23;;;;;;;4.10;3.00;;;9.90;99.90;;;;;;5042240;28;20025;-75
2022/10/01 04:33:37;;;;;;;5.95;3.42;;;9.90;99.90;;;;;;5039279;28;20580;-77
2022/10/01 04:36:03;;;;;;;8.77;3.83;;;9.90;99.90;;;;;;5060736;28;20033;-75
2022/10/01 04:38:30;;;;;;;5.50;3.28;;;9.80;99.90;;;;;;5058320;28;20032;-75
2022/10/01 04:40:56;;;;;;;11.55;3.63;;;9.70;99.90;;;;;;5051548;28;20036;-76
2022/10/01 04:43:22;;;;;;;7.53;3.67;;;9.70;99.90;;;;;;5033550;28;20356;-79
2022/10/01 04:45:48;;;;;;;6.05;3.40;;;9.70;99.90;;;;;;5021834;28;20040;-76
2022/10/01 04:48:14;;;;;;;5.35;3.25;;;9.60;99.90;;;;;;5033107;28;20033;-77
2022/10/01 04:50:40;;;;;;;5.43;3.70;;;9.60;99.90;;;;;;5033022;28;20033;-76
2022/10/01 04:53:07;;;;;;;4.85;3.65;;;9.60;99.90;;;;;;5036767;28;20374;-76
2022/10/01 04:55:33;;;;;;;5.57;3.67;;;9.50;99.90;;;;;;5049674;28;20048;-76
2022/10/01 04:57:59;;;;;;;6.72;3.88;;;9.50;99.90;;;;;;5051433;28;20036;-76
2022/10/01 05:00:25;;;;;;;6.05;3.95;;;9.40;99.90;;;;;;5050550;28;20379;-76
2022/10/01 05:02:52;;;;;;;7.88;4.53;;;9.40;99.90;;;;;;5052113;28;20413;-77
2022/10/01 05:05:21;;;;;;;6.15;3.88;;;9.40;99.90;;;;;;5049575;28;20036;-78
2022/10/01 05:07:48;;;;;;;5.10;3.15;;;9.40;99.90;;;;;;5051172;28;20040;-77
2022/10/01 05:10:19;;;;;;;8.07;4.53;;;9.40;99.90;;;;;;5051080;28;20025;-76
2022/10/01 05:12:47;;;;;;;5.15;4.25;;;9.40;99.90;;;;;;5051330;28;20389;-75
2022/10/01 05:15:14;;;;;;;9.43;4.45;;;9.40;99.90;;;;;;5049811;28;20390;-76
2022/10/01 05:17:40;;;;;;;6.65;4.60;;;9.40;99.90;;;;;;5050384;28;20029;-76
2022/10/01 05:20:10;;;;;;;6.03;3.83;;;9.30;99.90;;;;;;5051090;28;20044;-76
2022/10/01 05:22:36;;;;;;;10.80;4.70;;;9.30;99.90;;;;;;5050536;28;20631;-77
2022/10/01 05:25:03;;;;;;;8.27;4.03;;;9.30;99.90;;;;;;5040351;28;20424;-76
2022/10/01 05:27:30;;;;;;;6.82;4.30;;;9.30;99.90;;;;;;5030684;28;20030;-77
2022/10/01 05:29:56;;;;;;;6.13;4.03;;;9.30;99.90;;;;;;5047035;28;20083;-76
2022/10/01 05:32:23;;;;;;;6.10;4.22;;;9.30;99.90;;;;;;5050148;28;20044;-75
2022/10/01 05:34:49;;;;;;;8.00;5.18;;;9.30;99.90;;;;;;5049362;28;20047;-76
2022/10/01 05:37:16;;;;;;;8.40;5.05;;;9.30;99.90;;;;;;5050429;28;20032;-75
2022/10/01 05:39:43;;;;;;;7.55;4.65;;;9.30;99.90;;;;;;5050002;28;20037;-76
2022/10/01 05:42:09;;;;;;;6.20;4.07;;;9.40;99.90;;;;;;5050835;28;20052;-76
2022/10/01 05:44:36;;;;;;;5.68;3.88;;;9.30;99.90;;;;;;5047528;28;20025;-75
2022/10/01 05:47:06;;;;;;;10.02;4.88;;;9.30;99.90;;;;;;5050934;28;20029;-76
2022/10/01 05:49:33;;;;;;;5.38;3.90;;;9.40;99.90;;;;;;5049856;28;20029;-76
2022/10/01 05:51:59;;;;;;;5.90;4.03;;;9.40;99.90;;;;;;5049759;28;20040;-75
2022/10/01 05:54:28;;;;;;;9.32;4.65;;;9.40;99.90;;;;;;5048576;28;20481;-76
2022/10/01 05:56:55;;;;;;;7.82;4.15;;;9.40;99.90;;;;;;5049241;28;20477;-76
2022/10/01 05:59:22;;;;;;;8.23;4.85;;;9.40;99.90;;;;;;5049913;28;20029;-77
2022/10/01 06:01:49;;;;;;;5.80;4.47;;;9.40;99.90;;;;;;5049984;28;20049;-76
2022/10/01 06:04:15;;;;;;;5.85;4.50;;;9.40;99.90;;;;;;5049276;28;20044;-77
2022/10/01 06:06:41;;;;;;;7.30;5.20;;;9.40;99.90;;;;;;5050017;28;20025;-77
2022/10/01 06:09:07;;;;;;;6.18;4.25;;;9.50;99.90;;;;;;5049413;28;20033;-76
2022/10/01 06:11:36;;;;;;;6.28;4.32;;;9.50;99.90;;;;;;5049979;28;20033;-76
2022/10/01 06:14:03;;;;;;;6.65;5.25;;;9.50;99.90;;;;;;5049995;28;20059;-78
2022/10/01 06:16:29;;;;;;;7.35;4.32;;;9.50;99.90;;;;;;5048929;28;20036;-76
2022/10/01 06:18:56;;;;;;;7.13;5.03;;;9.50;99.90;;;;;;5038943;28;20052;-76
2022/10/01 06:21:24;;;;;;;8.27;5.18;;;9.50;99.90;;;;;;5030832;28;20033;-77
2022/10/01 06:23:51;;;;;;;7.75;4.50;;;9.50;99.90;;;;;;5037970;28;20414;-76
2022/10/01 06:26:17;;;;;;;6.65;4.30;;;9.50;99.90;;;;;;5040869;28;20037;-76
2022/10/01 06:28:44;;;;;;;9.23;4.38;;;9.50;99.90;;;;;;5049816;28;20394;-76
2022/10/01 06:31:10;;;;;;;5.60;4.22;;;9.50;99.90;;;;;;5050508;28;20049;-75
2022/10/01 06:33:36;;;;;;;6.15;4.20;;;9.50;99.90;;;;;;5048895;28;20478;-75
2022/10/01 06:36:03;;;;;;;7.35;4.50;;;9.50;99.90;;;;;;5048998;28;20036;-77
2022/10/01 06:38:29;;;;;;;7.20;3.95;;;9.50;99.90;;;;;;5051207;28;20033;-77
2022/10/01 06:40:58;;;;;;;6.95;4.10;;;9.50;99.90;;;;;;5054043;28;20029;-77
2022/10/01 06:43:25;;;;;;;5.72;3.97;;;9.50;99.90;;;;;;5052286;28;20053;-80
2022/10/01 06:45:52;;;;;;;6.25;3.95;;;9.40;99.90;;;;;;5052383;28;20040;-77
2022/10/01 06:48:19;;;;;;;7.07;4.70;;;9.50;99.90;;;;;;5038688;28;20360;-76
2022/10/01 06:50:47;;;;;;;7.47;4.70;;;9.50;99.90;;;;;;5034032;28;20025;-77
2022/10/01 06:53:16;;;;;;;6.90;4.82;;;9.50;99.90;;;;;;5034561;28;20040;-76
2022/10/01 06:55:43;;;;;;;6.43;4.72;;;9.50;99.90;;;;;;5032057;28;20078;-76
2022/10/01 06:58:13;;;;;;;10.23;4.95;;;9.50;99.90;;;;;;5032846;28;20041;-77
2022/10/01 07:00:41;;;;;;;6.85;4.43;;;9.50;99.90;;;;;;5033223;28;20052;-77
2022/10/01 07:03:10;;;;;;;7.78;5.50;;;9.40;99.90;;;;;;5034924;28;20041;-76
2022/10/01 07:05:37;;;;;;;7.15;4.93;;;9.50;99.90;;;;;;5031065;28;20029;-77
2022/10/01 07:08:04;;;;;;;7.38;5.18;;;9.50;99.90;;;;;;5034949;28;20041;-77
2022/10/01 07:10:31;;;;;;;7.72;4.57;;;9.50;99.90;;;;;;5032405;28;20497;-77
2022/10/01 07:13:15;;;;;;;6.05;4.40;;;9.50;99.90;;;;;;5034563;28;20037;-76
2022/10/01 07:15:42;;;;;;;8.55;5.70;;;9.50;99.90;;;;;;5027940;28;20335;-76
2022/10/01 07:18:09;;;;;;;8.45;4.20;;;9.50;99.90;;;;;;5034322;28;20029;-76
2022/10/01 07:20:38;;;;;;;6.75;4.78;;;9.50;99.90;;;;;;5033084;28;20029;-76
2022/10/01 07:23:06;;;;;;;8.40;4.78;;;9.50;99.90;;;;;;5033841;28;20033;-76
2022/10/01 07:25:32;;;;;;;6.65;4.47;;;9.50;99.90;;;;;;5027544;28;20034;-78
2022/10/01 07:28:03;;;;;;;5.13;4.05;;;9.50;99.90;;;;;;5023138;28;20030;-76
2022/10/01 07:30:30;;;;;;;6.18;4.38;;;9.50;99.90;;;;;;5045944;28;20033;-76
2022/10/01 07:32:57;;;;;;;7.75;5.35;;;9.60;99.90;;;;;;5053274;28;20037;-76
2022/10/01 07:35:23;;;;;;;7.68;4.15;;;9.60;99.90;;;;;;5052668;28;20037;-78
2022/10/01 07:37:50;;;;;;;8.05;4.82;;;9.60;99.90;;;;;;5044746;28;20036;-76
2022/10/01 07:40:17;;;;;;;6.20;4.15;;;9.60;99.90;;;;;;5040126;28;20459;-77
2022/10/01 07:42:53;;;;;;;7.60;4.32;;;9.60;99.90;;;;;;5033100;28;20030;-76
2022/10/01 07:45:23;;;;;;;6.43;4.38;;;9.70;99.90;;;;;;5033554;28;20049;-75
2022/10/01 07:47:58;;;;;;;5.18;3.92;;;9.60;99.90;;;;;;5031803;28;20371;-75
2022/10/01 07:50:25;;;;;;;5.85;3.80;;;9.70;99.90;;;;;;5032574;28;20212;-79
2022/10/01 07:52:56;;;;;;;5.10;4.05;;;9.70;99.90;;;;;;5033061;28;20025;-75
2022/10/01 07:55:25;;;;;;;9.13;4.93;;;9.70;99.90;;;;;;5032914;28;20048;-78
2022/10/01 07:57:53;;;;;;;6.70;4.35;;;9.70;99.90;;;;;;5031643;28;20052;-76
2022/10/01 08:00:20;;;;;;;8.88;4.38;;;9.70;99.90;;;;;;5052236;28;20037;-76
2022/10/01 08:02:52;;;;;;;4.93;3.80;;;9.70;99.90;;;;;;5051913;28;20064;-76
2022/10/01 08:05:20;;;;;;;5.50;3.78;;;9.70;99.90;;;;;;5052359;28;20035;-76
2022/10/01 08:07:48;;;;;;;5.88;3.47;;;9.70;99.90;;;;;;5050482;28;20044;-77
2022/10/01 08:10:16;;;;;;;5.82;3.58;;;9.70;99.90;;;;;;5049759;28;20390;-74
2022/10/01 08:12:43;;;;;;;5.68;3.28;;;9.70;99.90;;;;;;5026403;28;20044;-74
2022/10/01 08:15:11;;;;;;;6.38;2.95;;;9.80;99.90;;;;;;5026400;28;20044;-74
2022/10/01 08:17:37;;;;;;;5.45;3.25;;;9.80;99.90;;;;;;5030966;28;20045;-74
2022/10/01 08:20:06;;;;;;;6.20;3.30;;;9.80;99.90;;;;;;5032307;28;20045;-74
2022/10/01 08:22:32;;;;;;;6.13;3.28;;;9.80;99.90;;;;;;5032211;28;20040;-73
2022/10/01 08:24:58;;;;;;;6.88;3.38;;;9.80;99.90;;;;;;5033457;28;20374;-74
2022/10/01 08:27:26;;;;;;;8.00;3.28;;;9.80;99.90;;;;;;5044225;28;20025;-76
2022/10/01 08:29:53;;;;;;;6.10;3.13;;;9.80;99.90;;;;;;5032756;28;20041;-74
2022/10/01 08:32:20;;;;;;;6.00;3.60;;;9.80;99.90;;;;;;5037861;28;20041;-75
2022/10/01 08:34:47;;;;;;;5.93;3.35;;;9.90;99.90;;;;;;5035394;28;20488;-74
2022/10/01 08:37:13;;;;;;;7.97;4.43;;;9.90;99.90;;;;;;5050235;28;20052;-74
2022/10/01 08:39:39;;;;;;;13.18;7.20;;;9.90;99.90;;;;;;5051344;28;20033;-73
2022/10/01 08:42:32;;;;;;;29.52;17.85;;;9.90;99.90;;;;;;5051653;28;20029;-73
2022/10/01 08:45:03;;;;;;;26.85;15.35;;;9.90;99.90;;;;;;5052057;28;20044;-74
2022/10/01 08:47:34;;;;;;;44.88;25.27;;;9.90;99.90;;;;;;5042033;28;20026;-74
2022/10/01 08:50:36;;;;;;;41.35;24.13;;;9.90;99.90;;;;;;5034821;28;20029;-74
2022/10/01 08:53:05;;;;;;;22.85;14.10;;;9.90;99.90;;;;;;5051561;28;20029;-73
2022/10/01 08:55:36;;;;;;;15.00;8.27;;;9.90;99.90;;;;;;5043119;28;20053;-74
2022/10/01 08:58:08;;;;;;;29.33;16.40;;;10.00;99.90;;;;;;5037790;28;20037;-74
2022/10/01 09:00:40;;;;;;;16.88;9.95;;;10.00;99.90;;;;;;5042220;28;20045;-74
2022/10/01 09:03:11;;;;;;;15.77;9.73;;;10.00;99.90;;;;;;5040022;28;20429;-73
2022/10/01 09:05:58;;;;;;;134.43;78.78;;;10.00;99.90;;;;;;5034552;28;20029;-74
2022/10/01 09:08:52;;;;;;;27.30;17.17;;;10.10;99.90;;;;;;5044016;28;20033;-74
2022/10/01 09:11:43;;;;;;;14.35;9.38;;;10.10;99.90;;;;;;5032583;28;20442;-74
2022/10/01 09:14:27;;;;;;;39.38;25.63;;;10.10;99.90;;;;;;5032925;28;20493;-74
2022/10/01 09:17:02;;;;;;;11.93;8.85;;;10.10;99.90;;;;;;5030400;28;20034;-73
2022/10/01 09:19:49;;;;;;;8.15;4.20;;;10.10;99.90;;;;;;5030534;28;20025;-76
2022/10/01 09:22:37;;;;;;;5.88;3.88;;;10.10;99.90;;;;;;5037158;28;20037;-75
2022/10/01 09:25:10;;;;;;;7.57;4.45;;;10.20;99.90;;;;;;5050943;28;20043;-74
2022/10/01 09:27:37;;;;;;;5.57;3.60;;;10.20;99.90;;;;;;5050300;28;20052;-74
2022/10/01 09:30:11;;;;;;;8.38;3.20;;;10.20;99.90;;;;;;5038276;28;20033;-75
2022/10/01 09:32:56;;;;;;;5.53;3.50;;;10.20;99.90;;;;;;5033150;28;20467;-74
2022/10/01 09:35:42;;;;;;;8.48;5.05;;;10.20;99.90;;;;;;5031608;28;20104;-75
2022/10/01 09:38:26;;;;;;;4.63;2.97;;;10.30;99.90;;;;;;5031773;28;20037;-74
2022/10/01 09:40:57;;;;;;;7.45;3.97;;;10.30;99.90;;;;;;5031462;28;20040;-75
2022/10/01 09:43:28;;;;;;;3.85;2.35;;;10.40;99.90;;;;;;5030491;28;20034;-75
2022/10/01 09:45:54;;;;;;;10.73;6.72;;;10.40;99.90;;;;;;5042373;28;20037;-76
2022/10/01 09:48:39;;;;;;;4.88;3.33;;;10.40;99.90;;;;;;5046536;28;20042;-76
2022/10/01 09:51:13;;;;;;;2.53;2.15;;;10.50;99.90;;;;;;5030434;28;20369;-76
2022/10/01 09:54:02;;;;;;;3.58;2.55;;;10.50;99.90;;;;;;5028650;28;20041;-75
2022/10/01 09:57:06;;;;;;;3.05;2.55;;;10.60;99.90;;;;;;5033907;28;20421;-77
2022/10/01 09:59:44;;;;;;;3.63;2.53;;;10.70;99.90;;;;;;5014984;28;20041;-76
2022/10/01 10:02:24;;;;;;;20.73;13.25;;;10.80;99.90;;;;;;5026613;28;20050;-75
2022/10/01 10:05:17;;;;;;;13.00;8.98;;;10.80;99.90;;;;;;5032212;28;20200;-77
2022/10/01 10:07:50;;;;;;;19.50;10.13;;;10.70;99.90;;;;;;5030261;28;20487;-78
2022/10/01 10:10:20;;;;;;;59.55;33.90;;;10.80;99.90;;;;;;5031505;28;20493;-76
2022/10/01 10:12:53;;;;;;;45.55;24.98;;;10.90;99.90;;;;;;5047587;28;20051;-76
2022/10/01 10:15:21;;;;;;;6.90;3.92;;;11.00;99.90;;;;;;5034053;28;20044;-77
2022/10/01 10:17:50;;;;;;;54.42;29.52;;;11.10;99.90;;;;;;5034747;28;20056;-75
2022/10/01 10:20:38;;;;;;;21.85;13.00;;;11.20;99.90;;;;;;5035051;28;20059;-75
2022/10/01 10:23:33;;;;;;;38.42;21.60;;;11.30;99.90;;;;;;5050305;28;20037;-75
2022/10/01 10:26:06;;;;;;;18.55;10.45;;;11.60;99.90;;;;;;5033919;28;20045;-75
2022/10/01 10:28:43;;;;;;;10.98;4.47;;;11.60;99.90;;;;;;5034080;28;20056;-76
2022/10/01 10:31:20;;;;;;;19.13;10.73;;;11.60;99.90;;;;;;5047710;28;20040;-77
2022/10/01 10:33:49;;;;;;;31.65;25.00;;;11.60;99.90;;;;;;5038168;28;20050;-77
2022/10/01 10:36:18;;;;;;;21.20;15.13;;;11.60;99.90;;;;;;5036733;28;20085;-77
2022/10/01 10:38:48;;;;;;;16.20;9.57;;;11.60;99.90;;;;;;5053142;28;20029;-77
2022/10/01 10:41:18;;;;;;;74.68;47.50;;;11.60;99.90;;;;;;5047193;28;20033;-76
2022/10/01 10:43:47;;;;;;;32.20;18.58;;;11.50;99.90;;;;;;5033340;28;20496;-77
2022/10/01 10:46:30;;;;;;;34.63;19.90;;;11.50;99.90;;;;;;5034274;28;20042;-77
2022/10/01 10:49:03;;;;;;;25.30;20.00;;;11.60;99.90;;;;;;5034219;28;20044;-75
2022/10/01 10:51:42;;;;;;;12.00;10.73;;;11.70;99.90;;;;;;5034375;28;20052;-78
2022/10/01 10:54:20;;;;;;;5.13;3.53;;;11.70;99.90;;;;;;5033202;28;20033;-76
2022/10/01 10:56:55;;;;;;;14.13;9.32;;;11.60;99.90;;;;;;5033541;28;20038;-77
2022/10/01 10:59:21;;;;;;;11.20;6.68;;;11.70;99.90;;;;;;5034388;28;20060;-77
2022/10/01 11:01:48;;;;;;;9.82;4.70;;;11.80;99.90;;;;;;5031956;28;20109;-77
2022/10/01 11:04:37;;;;;;;10.35;7.03;;;11.80;99.90;;;;;;5032702;28;20470;-77
2022/10/01 11:07:03;;;;;;;18.25;13.23;;;11.70;99.90;;;;;;5034190;28;20044;-77
2022/10/01 11:09:42;;;;;;;25.23;16.50;;;11.70;99.90;;;;;;5033606;28;20040;-81
2022/10/01 11:12:28;;;;;;;4.25;3.22;;;11.80;99.90;;;;;;5032636;28;20467;-78
2022/10/01 11:15:05;;;;;;;5.15;3.28;;;11.80;99.90;;;;;;5031729;28;20049;-77
2022/10/01 11:17:58;;;;;;;6.88;3.88;;;11.90;99.90;;;;;;5033522;28;20030;-79
2022/10/01 11:20:49;;;;;;;7.13;6.53;;;12.00;99.90;;;;;;5047411;28;20033;-77
2022/10/01 11:23:26;;;;;;;5.05;2.85;;;12.00;99.90;;;;;;5039542;28;20029;-77
2022/10/01 11:26:04;;;;;;;34.83;20.70;;;11.90;99.90;;;;;;5026810;28;20029;-77
2022/10/01 11:29:18;;;;;;;9.68;5.90;;;12.00;99.90;;;;;;5037071;28;20033;-78
2022/10/01 11:31:50;;;;;;;9.38;1.90;;;12.00;99.90;;;;;;5026290;28;20049;-75
2022/10/01 11:34:49;;;;;;;6.38;3.25;;;11.90;99.90;;;;;;5032744;28;20025;-77
2022/10/01 11:37:38;;;;;;;12.77;7.30;;;12.00;99.90;;;;;;5027283;28;20489;-76
2022/10/01 11:40:16;;;;;;;26.95;14.77;;;12.00;99.90;;;;;;5042855;28;20383;-76
2022/10/01 11:42:45;;;;;;;26.95;14.57;;;12.10;99.90;;;;;;5050781;28;20052;-76
2022/10/01 11:45:20;;;;;;;4.18;2.10;;;12.20;99.90;;;;;;5047313;28;20499;-77
2022/10/01 11:47:54;;;;;;;43.05;24.15;;;12.30;99.90;;;;;;5034400;28;20033;-76
2022/10/01 11:50:29;;;;;;;5.68;3.15;;;12.40;99.90;;;;;;5036826;28;20033;-78
2022/10/01 11:53:14;;;;;;;7.97;4.22;;;12.50;99.90;;;;;;5031797;28;20458;-76
2022/10/01 11:59:02;;;;;;;18.33;10.77;;;12.70;99.90;;;;;;5032141;28;20493;-74
2022/10/01 12:01:44;;;;;;;7.80;4.65;;;12.70;99.90;;;;;;5034105;28;20046;-74
2022/10/01 12:04:10;;;;;;;3.33;2.30;;;12.70;99.90;;;;;;5030804;28;20409;-74
2022/10/01 12:06:52;;;;;;;8.23;3.53;;;12.50;99.90;;;;;;5034253;28;20048;-74
2022/10/01 12:09:31;;;;;;;5.70;2.15;;;12.60;99.90;;;;;;5033429;28;20044;-74
2022/10/01 12:12:10;;;;;;;1.55;0.80;;;12.60;99.90;;;;;;5034511;28;20025;-76
2022/10/01 12:15:03;;;;;;;2.60;1.52;;;12.60;99.90;;;;;;5046685;28;20041;-77
2022/10/01 12:17:49;;;;;;;13.40;8.05;;;12.60;99.90;;;;;;5027216;28;20064;-76
2022/10/01 12:20:56;;;;;;;6.20;2.88;;;12.60;99.90;;;;;;5032433;28;20025;-76
2022/10/01 12:23:41;;;;;;;5.80;2.22;;;12.70;99.90;;;;;;5030771;28;20375;-77
2022/10/01 12:26:34;;;;;;;5.50;3.80;;;12.80;99.90;;;;;;5033751;28;20045;-76
2022/10/01 12:29:22;;;;;;;5.05;3.30;;;12.80;99.90;;;;;;5033468;28;20033;-76
2022/10/01 12:31:57;;;;;;;6.15;3.03;;;12.70;99.90;;;;;;5028781;28;20036;-75
2022/10/01 12:34:41;;;;;;;2.85;2.10;;;12.70;99.90;;;;;;5030470;28;20026;-75
2022/10/01 12:37:20;;;;;;;5.93;4.85;;;12.70;99.90;;;;;;5034944;28;20033;-75
2022/10/01 12:40:09;;;;;;;5.22;4.10;;;12.70;99.90;;;;;;5031356;28;20032;-76
2022/10/01 12:43:13;;;;;;;8.07;5.22;;;12.70;99.90;;;;;;5029015;28;20037;-77
2022/10/01 12:45:51;;;;;;;2.95;2.25;;;12.70;99.90;;;;;;5047896;28;20474;-76
2022/10/01 12:48:34;;;;;;;4.60;1.88;;;12.60;99.90;;;;;;5038902;28;20036;-76
2022/10/01 12:51:34;;;;;;;3.08;1.60;;;12.60;99.90;;;;;;5032070;28;20040;-76
2022/10/01 12:54:44;;;;;;;2.45;1.77;;;12.60;99.90;;;;;;5045262;28;20033;-75
2022/10/01 12:57:27;;;;;;;2.38;1.40;;;12.60;99.90;;;;;;5031153;28;20041;-74
2022/10/01 12:59:58;;;;;;;2.85;1.60;;;12.50;99.90;;;;;;5045172;28;20036;-75
2022/10/01 13:02:40;;;;;;;1.58;0.93;;;12.50;99.90;;;;;;5032077;28;20049;-74
2022/10/01 13:05:54;;;;;;;3.05;2.22;;;12.60;99.90;;;;;;5024610;28;20052;-74
2022/10/01 13:08:32;;;;;;;1.85;1.27;;;12.70;99.90;;;;;;5043937;28;20044;-75
2022/10/01 13:11:19;;;;;;;3.15;1.05;;;12.90;99.90;;;;;;5040986;28;20466;-76
2022/10/01 13:13:56;;;;;;;1.85;1.20;;;12.90;99.90;;;;;;5030490;28;20034;-76
2022/10/01 13:16:35;;;;;;;2.30;1.10;;;13.00;99.90;;;;;;5040783;28;20036;-77
2022/10/01 13:19:13;;;;;;;3.00;1.02;;;13.10;99.90;;;;;;5043080;28;20493;-75
2022/10/01 13:22:07;;;;;;;1.85;0.70;;;13.20;99.90;;;;;;5024699;28;20033;-76